sensor_id;sensor_type;location;lat;lon;timestamp;P1;durP1;ratioP1;P2;durP2;ratioP2
18090;SDS011;9172;49.948;9.208;2023-04-29T00:00:12;4.60;;;2.47;;
18090;SDS011;9172;49.948;9.208;2023-04-29T00:02:42;3.27;;;2.07;;
18090;SDS011;9172;49.948;9.208;2023-04-29T00:05:12;4.80;;;1.83;;
18090;SDS011;9172;49.948;9.208;2023-04-29T00:07:41;4.13;;;2.30;;
18090;SDS011;9172;49.948;9.208;2023-04-29T00:10:10;2.20;;;1.90;;
18090;SDS011;9172;49.948;9.208;2023-04-29T00:12:40;3.07;;;2.20;;
18090;SDS011;9172;49.948;9.208;2023-04-29T00:15:09;5.63;;;2.40;;
18090;SDS011;9172;49.948;9.208;2023-04-29T00:17:39;4.73;;;2.07;;
18090;SDS011;9172;49.948;9.208;2023-04-29T00:20:09;8.43;;;2.27;;
18090;SDS011;9172;49.948;9.208;2023-04-29T00:22:39;4.03;;;2.50;;
18090;SDS011;9172;49.948;9.208;2023-04-29T00:25:08;4.07;;;2.90;;
18090;SDS011;9172;49.948;9.208;2023-04-29T00:27:38;4.57;;;2.53;;
18090;SDS011;9172;49.948;9.208;2023-04-29T00:30:10;4.87;;;3.13;;
18090;SDS011;9172;49.948;9.208;2023-04-29T00:32:48;7.27;;;2.40;;
18090;SDS011;9172;49.948;9.208;2023-04-29T00:35:17;3.73;;;2.47;;
18090;SDS011;9172;49.948;9.208;2023-04-29T00:37:46;3.17;;;2.30;;
18090;SDS011;9172;49.948;9.208;2023-04-29T00:40:15;3.10;;;2.50;;
18090;SDS011;9172;49.948;9.208;2023-04-29T00:42:45;2.97;;;2.00;;
18090;SDS011;9172;49.948;9.208;2023-04-29T00:45:22;5.60;;;2.77;;
18090;SDS011;9172;49.948;9.208;2023-04-29T00:47:51;6.67;;;2.27;;
18090;SDS011;9172;49.948;9.208;2023-04-29T00:50:20;3.90;;;2.07;;
18090;SDS011;9172;49.948;9.208;2023-04-29T00:52:49;2.30;;;1.70;;
18090;SDS011;9172;49.948;9.208;2023-04-29T00:55:18;4.73;;;2.50;;
18090;SDS011;9172;49.948;9.208;2023-04-29T00:57:50;2.87;;;2.20;;
18090;SDS011;9172;49.948;9.208;2023-04-29T01:03:09;2.90;;;2.10;;
18090;SDS011;9172;49.948;9.208;2023-04-29T01:05:38;4.70;;;2.33;;
18090;SDS011;9172;49.948;9.208;2023-04-29T01:08:21;3.37;;;2.63;;
18090;SDS011;9172;49.948;9.208;2023-04-29T01:10:47;2.97;;;2.30;;
18090;SDS011;9172;49.948;9.208;2023-04-29T01:13:20;4.73;;;2.73;;
18090;SDS011;9172;49.948;9.208;2023-04-29T01:15:53;5.43;;;2.43;;
18090;SDS011;9172;49.948;9.208;2023-04-29T01:18:24;4.33;;;2.83;;
18090;SDS011;9172;49.948;9.208;2023-04-29T01:20:55;5.40;;;2.70;;
18090;SDS011;9172;49.948;9.208;2023-04-29T01:23:25;4.37;;;2.50;;
18090;SDS011;9172;49.948;9.208;2023-04-29T01:25:54;4.93;;;2.90;;
18090;SDS011;9172;49.948;9.208;2023-04-29T01:28:28;4.23;;;3.03;;
18090;SDS011;9172;49.948;9.208;2023-04-29T01:31:03;6.33;;;2.67;;
18090;SDS011;9172;49.948;9.208;2023-04-29T01:33:43;3.93;;;2.50;;
18090;SDS011;9172;49.948;9.208;2023-04-29T01:36:15;3.50;;;2.70;;
18090;SDS011;9172;49.948;9.208;2023-04-29T01:38:51;4.27;;;3.10;;
18090;SDS011;9172;49.948;9.208;2023-04-29T01:41:24;7.23;;;2.90;;
18090;SDS011;9172;49.948;9.208;2023-04-29T01:43:55;6.57;;;2.90;;
18090;SDS011;9172;49.948;9.208;2023-04-29T01:46:25;7.67;;;2.90;;
18090;SDS011;9172;49.948;9.208;2023-04-29T01:48:55;7.50;;;2.50;;
18090;SDS011;9172;49.948;9.208;2023-04-29T01:51:23;6.83;;;2.30;;
18090;SDS011;9172;49.948;9.208;2023-04-29T01:53:54;4.90;;;2.30;;
18090;SDS011;9172;49.948;9.208;2023-04-29T01:56:23;3.87;;;2.37;;
18090;SDS011;9172;49.948;9.208;2023-04-29T01:58:51;3.80;;;2.90;;
18090;SDS011;9172;49.948;9.208;2023-04-29T02:01:21;6.30;;;3.20;;
18090;SDS011;9172;49.948;9.208;2023-04-29T02:03:49;4.13;;;2.60;;
18090;SDS011;9172;49.948;9.208;2023-04-29T02:06:19;5.17;;;3.10;;
18090;SDS011;9172;49.948;9.208;2023-04-29T02:08:49;3.90;;;2.90;;
18090;SDS011;9172;49.948;9.208;2023-04-29T02:11:18;5.37;;;3.40;;
18090;SDS011;9172;49.948;9.208;2023-04-29T02:13:47;3.87;;;2.70;;
18090;SDS011;9172;49.948;9.208;2023-04-29T02:16:17;2.83;;;2.47;;
18090;SDS011;9172;49.948;9.208;2023-04-29T02:18:47;4.43;;;3.00;;
18090;SDS011;9172;49.948;9.208;2023-04-29T02:21:17;5.80;;;2.50;;
18090;SDS011;9172;49.948;9.208;2023-04-29T02:23:46;3.40;;;2.20;;
18090;SDS011;9172;49.948;9.208;2023-04-29T02:26:23;3.87;;;2.63;;
18090;SDS011;9172;49.948;9.208;2023-04-29T02:28:52;2.73;;;2.10;;
18090;SDS011;9172;49.948;9.208;2023-04-29T02:31:22;4.10;;;2.30;;
18090;SDS011;9172;49.948;9.208;2023-04-29T02:33:51;3.87;;;2.53;;
18090;SDS011;9172;49.948;9.208;2023-04-29T02:36:20;2.63;;;2.13;;
18090;SDS011;9172;49.948;9.208;2023-04-29T02:38:49;2.93;;;2.03;;
18090;SDS011;9172;49.948;9.208;2023-04-29T02:41:21;3.80;;;2.60;;
18090;SDS011;9172;49.948;9.208;2023-04-29T02:43:51;4.73;;;2.60;;
18090;SDS011;9172;49.948;9.208;2023-04-29T02:46:19;3.00;;;2.70;;
18090;SDS011;9172;49.948;9.208;2023-04-29T02:48:49;5.60;;;2.93;;
18090;SDS011;9172;49.948;9.208;2023-04-29T02:51:18;3.10;;;2.43;;
18090;SDS011;9172;49.948;9.208;2023-04-29T02:53:47;7.30;;;2.67;;
18090;SDS011;9172;49.948;9.208;2023-04-29T02:56:16;4.17;;;2.40;;
18090;SDS011;9172;49.948;9.208;2023-04-29T02:58:45;4.13;;;2.90;;
18090;SDS011;9172;49.948;9.208;2023-04-29T03:01:14;4.67;;;2.77;;
18090;SDS011;9172;49.948;9.208;2023-04-29T03:03:44;2.70;;;2.30;;
18090;SDS011;9172;49.948;9.208;2023-04-29T03:06:15;5.37;;;2.80;;
18090;SDS011;9172;49.948;9.208;2023-04-29T03:08:43;13.83;;;3.10;;
18090;SDS011;9172;49.948;9.208;2023-04-29T03:11:13;5.47;;;2.93;;
18090;SDS011;9172;49.948;9.208;2023-04-29T03:13:41;6.67;;;3.50;;
18090;SDS011;9172;49.948;9.208;2023-04-29T03:16:11;5.83;;;3.40;;
18090;SDS011;9172;49.948;9.208;2023-04-29T03:18:41;3.47;;;2.53;;
18090;SDS011;9172;49.948;9.208;2023-04-29T03:21:10;3.37;;;2.47;;
18090;SDS011;9172;49.948;9.208;2023-04-29T03:23:39;3.17;;;2.40;;
18090;SDS011;9172;49.948;9.208;2023-04-29T03:26:08;5.40;;;2.50;;
18090;SDS011;9172;49.948;9.208;2023-04-29T03:28:36;8.97;;;2.90;;
18090;SDS011;9172;49.948;9.208;2023-04-29T03:31:05;2.83;;;2.40;;
18090;SDS011;9172;49.948;9.208;2023-04-29T03:33:33;5.30;;;3.13;;
18090;SDS011;9172;49.948;9.208;2023-04-29T03:36:03;4.27;;;3.20;;
18090;SDS011;9172;49.948;9.208;2023-04-29T03:38:33;4.57;;;3.00;;
18090;SDS011;9172;49.948;9.208;2023-04-29T03:41:03;5.47;;;3.77;;
18090;SDS011;9172;49.948;9.208;2023-04-29T03:43:32;5.63;;;3.00;;
18090;SDS011;9172;49.948;9.208;2023-04-29T03:46:02;4.77;;;3.30;;
18090;SDS011;9172;49.948;9.208;2023-04-29T03:48:31;5.27;;;3.23;;
18090;SDS011;9172;49.948;9.208;2023-04-29T03:51:01;5.33;;;2.70;;
18090;SDS011;9172;49.948;9.208;2023-04-29T03:53:34;4.43;;;3.03;;
18090;SDS011;9172;49.948;9.208;2023-04-29T03:56:03;6.20;;;3.30;;
18090;SDS011;9172;49.948;9.208;2023-04-29T03:58:33;7.27;;;3.17;;
18090;SDS011;9172;49.948;9.208;2023-04-29T04:01:03;4.80;;;3.10;;
18090;SDS011;9172;49.948;9.208;2023-04-29T04:03:32;5.93;;;3.20;;
18090;SDS011;9172;49.948;9.208;2023-04-29T04:06:00;5.53;;;3.00;;
18090;SDS011;9172;49.948;9.208;2023-04-29T04:08:29;5.53;;;3.13;;
18090;SDS011;9172;49.948;9.208;2023-04-29T04:10:58;3.80;;;2.77;;
18090;SDS011;9172;49.948;9.208;2023-04-29T04:13:28;8.23;;;3.10;;
18090;SDS011;9172;49.948;9.208;2023-04-29T04:15:57;6.10;;;3.63;;
18090;SDS011;9172;49.948;9.208;2023-04-29T04:18:25;5.77;;;3.30;;
18090;SDS011;9172;49.948;9.208;2023-04-29T04:20:54;5.17;;;3.03;;
18090;SDS011;9172;49.948;9.208;2023-04-29T04:23:22;3.90;;;3.00;;
18090;SDS011;9172;49.948;9.208;2023-04-29T04:25:51;4.80;;;3.07;;
18090;SDS011;9172;49.948;9.208;2023-04-29T04:28:21;4.60;;;3.43;;
18090;SDS011;9172;49.948;9.208;2023-04-29T04:30:50;4.87;;;3.20;;
18090;SDS011;9172;49.948;9.208;2023-04-29T04:33:19;3.87;;;3.00;;
18090;SDS011;9172;49.948;9.208;2023-04-29T04:35:48;5.93;;;3.50;;
18090;SDS011;9172;49.948;9.208;2023-04-29T04:38:17;6.47;;;3.80;;
18090;SDS011;9172;49.948;9.208;2023-04-29T04:40:46;5.80;;;3.67;;
18090;SDS011;9172;49.948;9.208;2023-04-29T04:43:16;5.03;;;3.97;;
18090;SDS011;9172;49.948;9.208;2023-04-29T04:45:45;8.20;;;3.80;;
18090;SDS011;9172;49.948;9.208;2023-04-29T04:48:14;4.97;;;3.63;;
18090;SDS011;9172;49.948;9.208;2023-04-29T04:50:43;5.80;;;3.40;;
18090;SDS011;9172;49.948;9.208;2023-04-29T04:53:12;6.90;;;4.10;;
18090;SDS011;9172;49.948;9.208;2023-04-29T04:55:41;7.80;;;3.70;;
18090;SDS011;9172;49.948;9.208;2023-04-29T04:58:11;4.67;;;3.23;;
18090;SDS011;9172;49.948;9.208;2023-04-29T05:00:43;5.53;;;4.03;;
18090;SDS011;9172;49.948;9.208;2023-04-29T05:03:14;8.57;;;4.77;;
18090;SDS011;9172;49.948;9.208;2023-04-29T05:05:46;7.40;;;4.57;;
18090;SDS011;9172;49.948;9.208;2023-04-29T05:08:21;8.70;;;4.50;;
18090;SDS011;9172;49.948;9.208;2023-04-29T05:10:51;9.57;;;5.47;;
18090;SDS011;9172;49.948;9.208;2023-04-29T05:13:22;5.67;;;4.27;;
18090;SDS011;9172;49.948;9.208;2023-04-29T05:15:53;6.03;;;4.23;;
18090;SDS011;9172;49.948;9.208;2023-04-29T05:18:23;11.20;;;5.90;;
18090;SDS011;9172;49.948;9.208;2023-04-29T05:20:53;6.80;;;4.80;;
18090;SDS011;9172;49.948;9.208;2023-04-29T05:23:23;8.27;;;5.37;;
18090;SDS011;9172;49.948;9.208;2023-04-29T05:25:51;10.20;;;6.30;;
18090;SDS011;9172;49.948;9.208;2023-04-29T05:28:20;12.90;;;6.30;;
18090;SDS011;9172;49.948;9.208;2023-04-29T05:30:52;11.60;;;6.30;;
18090;SDS011;9172;49.948;9.208;2023-04-29T05:33:23;9.50;;;5.77;;
18090;SDS011;9172;49.948;9.208;2023-04-29T05:35:56;10.40;;;6.53;;
18090;SDS011;9172;49.948;9.208;2023-04-29T05:38:28;11.20;;;7.13;;
18090;SDS011;9172;49.948;9.208;2023-04-29T05:40:57;12.10;;;6.20;;
18090;SDS011;9172;49.948;9.208;2023-04-29T05:43:28;10.33;;;6.47;;
18090;SDS011;9172;49.948;9.208;2023-04-29T05:45:57;10.17;;;6.40;;
18090;SDS011;9172;49.948;9.208;2023-04-29T05:48:26;14.33;;;7.83;;
18090;SDS011;9172;49.948;9.208;2023-04-29T05:50:55;10.00;;;6.63;;
18090;SDS011;9172;49.948;9.208;2023-04-29T05:53:23;10.27;;;6.10;;
18090;SDS011;9172;49.948;9.208;2023-04-29T05:55:53;9.90;;;6.60;;
18090;SDS011;9172;49.948;9.208;2023-04-29T05:58:22;12.73;;;6.60;;
18090;SDS011;9172;49.948;9.208;2023-04-29T06:00:51;12.90;;;7.27;;
18090;SDS011;9172;49.948;9.208;2023-04-29T06:03:20;10.40;;;6.50;;
18090;SDS011;9172;49.948;9.208;2023-04-29T06:08:24;11.93;;;6.50;;
18090;SDS011;9172;49.948;9.208;2023-04-29T06:10:53;11.60;;;7.17;;
18090;SDS011;9172;49.948;9.208;2023-04-29T06:13:30;12.13;;;7.53;;
18090;SDS011;9172;49.948;9.208;2023-04-29T06:15:59;13.93;;;7.13;;
18090;SDS011;9172;49.948;9.208;2023-04-29T06:18:28;13.13;;;6.97;;
18090;SDS011;9172;49.948;9.208;2023-04-29T06:20:57;12.90;;;7.07;;
18090;SDS011;9172;49.948;9.208;2023-04-29T06:23:27;10.23;;;6.80;;
18090;SDS011;9172;49.948;9.208;2023-04-29T06:25:57;11.97;;;7.30;;
18090;SDS011;9172;49.948;9.208;2023-04-29T06:28:26;10.57;;;6.60;;
18090;SDS011;9172;49.948;9.208;2023-04-29T06:31:03;12.10;;;6.83;;
18090;SDS011;9172;49.948;9.208;2023-04-29T06:33:32;15.10;;;7.50;;
18090;SDS011;9172;49.948;9.208;2023-04-29T06:36:01;11.17;;;6.30;;
18090;SDS011;9172;49.948;9.208;2023-04-29T06:38:30;11.73;;;6.13;;
18090;SDS011;9172;49.948;9.208;2023-04-29T06:41:00;11.93;;;6.77;;
18090;SDS011;9172;49.948;9.208;2023-04-29T06:43:29;11.77;;;5.90;;
18090;SDS011;9172;49.948;9.208;2023-04-29T06:46:00;12.17;;;6.40;;
18090;SDS011;9172;49.948;9.208;2023-04-29T06:48:29;12.77;;;7.40;;
18090;SDS011;9172;49.948;9.208;2023-04-29T06:50:58;15.60;;;7.30;;
18090;SDS011;9172;49.948;9.208;2023-04-29T06:53:26;13.37;;;7.00;;
18090;SDS011;9172;49.948;9.208;2023-04-29T06:55:55;15.23;;;7.53;;
18090;SDS011;9172;49.948;9.208;2023-04-29T06:58:24;11.37;;;6.07;;
18090;SDS011;9172;49.948;9.208;2023-04-29T07:00:53;11.23;;;6.33;;
18090;SDS011;9172;49.948;9.208;2023-04-29T07:03:23;10.70;;;6.47;;
18090;SDS011;9172;49.948;9.208;2023-04-29T07:05:52;9.70;;;6.10;;
18090;SDS011;9172;49.948;9.208;2023-04-29T07:08:22;10.13;;;5.93;;
18090;SDS011;9172;49.948;9.208;2023-04-29T07:10:54;11.03;;;5.80;;
18090;SDS011;9172;49.948;9.208;2023-04-29T07:13:23;12.00;;;5.57;;
18090;SDS011;9172;49.948;9.208;2023-04-29T07:15:53;10.13;;;5.43;;
18090;SDS011;9172;49.948;9.208;2023-04-29T07:18:22;8.23;;;5.27;;
18090;SDS011;9172;49.948;9.208;2023-04-29T07:20:50;10.30;;;5.57;;
18090;SDS011;9172;49.948;9.208;2023-04-29T07:23:21;8.43;;;4.87;;
18090;SDS011;9172;49.948;9.208;2023-04-29T07:25:50;9.43;;;4.97;;
18090;SDS011;9172;49.948;9.208;2023-04-29T07:28:20;9.10;;;5.17;;
18090;SDS011;9172;49.948;9.208;2023-04-29T07:30:50;7.90;;;4.57;;
18090;SDS011;9172;49.948;9.208;2023-04-29T07:33:19;7.13;;;4.30;;
18090;SDS011;9172;49.948;9.208;2023-04-29T07:35:48;9.47;;;4.50;;
18090;SDS011;9172;49.948;9.208;2023-04-29T07:38:17;8.07;;;4.40;;
18090;SDS011;9172;49.948;9.208;2023-04-29T07:40:46;7.70;;;4.57;;
18090;SDS011;9172;49.948;9.208;2023-04-29T07:43:15;5.73;;;3.73;;
18090;SDS011;9172;49.948;9.208;2023-04-29T07:45:45;6.77;;;3.83;;
18090;SDS011;9172;49.948;9.208;2023-04-29T07:48:14;7.47;;;4.10;;
18090;SDS011;9172;49.948;9.208;2023-04-29T07:50:44;4.67;;;3.20;;
18090;SDS011;9172;49.948;9.208;2023-04-29T07:53:13;5.80;;;3.87;;
18090;SDS011;9172;49.948;9.208;2023-04-29T07:55:43;6.27;;;3.30;;
18090;SDS011;9172;49.948;9.208;2023-04-29T07:58:12;4.90;;;3.20;;
18090;SDS011;9172;49.948;9.208;2023-04-29T08:00:41;5.53;;;3.50;;
18090;SDS011;9172;49.948;9.208;2023-04-29T08:03:10;5.23;;;2.97;;
18090;SDS011;9172;49.948;9.208;2023-04-29T08:05:39;5.57;;;3.37;;
18090;SDS011;9172;49.948;9.208;2023-04-29T08:08:09;4.90;;;3.10;;
18090;SDS011;9172;49.948;9.208;2023-04-29T08:10:38;5.27;;;2.83;;
18090;SDS011;9172;49.948;9.208;2023-04-29T08:13:09;6.33;;;3.67;;
18090;SDS011;9172;49.948;9.208;2023-04-29T08:15:38;4.80;;;2.90;;
18090;SDS011;9172;49.948;9.208;2023-04-29T08:18:07;4.57;;;2.80;;
18090;SDS011;9172;49.948;9.208;2023-04-29T08:20:37;6.10;;;2.90;;
18090;SDS011;9172;49.948;9.208;2023-04-29T08:23:06;5.00;;;3.27;;
18090;SDS011;9172;49.948;9.208;2023-04-29T08:25:34;9.67;;;3.77;;
18090;SDS011;9172;49.948;9.208;2023-04-29T08:28:05;6.23;;;3.00;;
18090;SDS011;9172;49.948;9.208;2023-04-29T08:30:36;4.50;;;2.70;;
18090;SDS011;9172;49.948;9.208;2023-04-29T08:33:07;4.90;;;3.13;;
18090;SDS011;9172;49.948;9.208;2023-04-29T08:35:38;5.17;;;3.20;;
18090;SDS011;9172;49.948;9.208;2023-04-29T08:38:07;5.60;;;3.07;;
18090;SDS011;9172;49.948;9.208;2023-04-29T08:40:45;4.07;;;2.73;;
18090;SDS011;9172;49.948;9.208;2023-04-29T08:43:14;5.27;;;2.90;;
18090;SDS011;9172;49.948;9.208;2023-04-29T08:45:45;4.70;;;2.63;;
18090;SDS011;9172;49.948;9.208;2023-04-29T08:48:15;4.43;;;2.13;;
18090;SDS011;9172;49.948;9.208;2023-04-29T08:50:50;3.80;;;2.60;;
18090;SDS011;9172;49.948;9.208;2023-04-29T08:53:22;6.13;;;2.70;;
18090;SDS011;9172;49.948;9.208;2023-04-29T08:56:17;3.77;;;2.50;;
18090;SDS011;9172;49.948;9.208;2023-04-29T08:58:50;5.40;;;2.93;;
18090;SDS011;9172;49.948;9.208;2023-04-29T09:01:23;4.07;;;2.63;;
18090;SDS011;9172;49.948;9.208;2023-04-29T09:03:57;5.00;;;2.43;;
18090;SDS011;9172;49.948;9.208;2023-04-29T09:06:31;3.73;;;2.20;;
18090;SDS011;9172;49.948;9.208;2023-04-29T09:08:59;6.83;;;2.97;;
18090;SDS011;9172;49.948;9.208;2023-04-29T09:11:30;4.70;;;2.17;;
18090;SDS011;9172;49.948;9.208;2023-04-29T09:14:09;4.43;;;2.57;;
18090;SDS011;9172;49.948;9.208;2023-04-29T09:16:41;4.73;;;2.87;;
18090;SDS011;9172;49.948;9.208;2023-04-29T09:19:25;4.27;;;2.50;;
18090;SDS011;9172;49.948;9.208;2023-04-29T09:22:02;3.47;;;2.20;;
18090;SDS011;9172;49.948;9.208;2023-04-29T09:24:32;3.13;;;2.00;;
18090;SDS011;9172;49.948;9.208;2023-04-29T09:27:03;4.07;;;2.10;;
18090;SDS011;9172;49.948;9.208;2023-04-29T09:29:34;4.53;;;2.63;;
18090;SDS011;9172;49.948;9.208;2023-04-29T09:32:17;4.63;;;2.33;;
18090;SDS011;9172;49.948;9.208;2023-04-29T09:34:47;4.47;;;2.70;;
18090;SDS011;9172;49.948;9.208;2023-04-29T09:37:22;3.13;;;2.13;;
18090;SDS011;9172;49.948;9.208;2023-04-29T09:39:53;4.83;;;2.67;;
18090;SDS011;9172;49.948;9.208;2023-04-29T09:42:22;3.77;;;2.37;;
18090;SDS011;9172;49.948;9.208;2023-04-29T09:44:52;3.57;;;2.30;;
18090;SDS011;9172;49.948;9.208;2023-04-29T09:47:20;4.17;;;2.57;;
18090;SDS011;9172;49.948;9.208;2023-04-29T09:49:58;4.10;;;2.30;;
18090;SDS011;9172;49.948;9.208;2023-04-29T09:52:39;4.00;;;2.80;;
18090;SDS011;9172;49.948;9.208;2023-04-29T09:55:09;5.27;;;2.80;;
18090;SDS011;9172;49.948;9.208;2023-04-29T09:57:41;6.50;;;3.10;;
18090;SDS011;9172;49.948;9.208;2023-04-29T10:00:12;6.97;;;3.40;;
18090;SDS011;9172;49.948;9.208;2023-04-29T10:02:41;5.93;;;3.10;;
18090;SDS011;9172;49.948;9.208;2023-04-29T10:05:12;4.53;;;3.17;;
18090;SDS011;9172;49.948;9.208;2023-04-29T10:07:42;5.87;;;2.80;;
18090;SDS011;9172;49.948;9.208;2023-04-29T10:10:14;3.40;;;2.30;;
18090;SDS011;9172;49.948;9.208;2023-04-29T10:12:43;3.00;;;2.23;;
18090;SDS011;9172;49.948;9.208;2023-04-29T10:15:19;5.07;;;3.13;;
18090;SDS011;9172;49.948;9.208;2023-04-29T10:17:54;3.37;;;2.80;;
18090;SDS011;9172;49.948;9.208;2023-04-29T10:20:28;7.80;;;2.83;;
18090;SDS011;9172;49.948;9.208;2023-04-29T10:22:59;5.77;;;2.90;;
18090;SDS011;9172;49.948;9.208;2023-04-29T10:25:29;4.10;;;2.73;;
18090;SDS011;9172;49.948;9.208;2023-04-29T10:27:59;4.90;;;3.00;;
18090;SDS011;9172;49.948;9.208;2023-04-29T10:30:30;3.53;;;2.30;;
18090;SDS011;9172;49.948;9.208;2023-04-29T10:33:00;4.60;;;2.77;;
18090;SDS011;9172;49.948;9.208;2023-04-29T10:35:31;5.30;;;2.77;;
18090;SDS011;9172;49.948;9.208;2023-04-29T10:38:00;4.50;;;2.60;;
18090;SDS011;9172;49.948;9.208;2023-04-29T10:40:35;5.13;;;2.73;;
18090;SDS011;9172;49.948;9.208;2023-04-29T10:43:07;5.03;;;2.73;;
18090;SDS011;9172;49.948;9.208;2023-04-29T10:45:36;3.63;;;2.50;;
18090;SDS011;9172;49.948;9.208;2023-04-29T10:48:13;4.33;;;2.63;;
18090;SDS011;9172;49.948;9.208;2023-04-29T10:50:59;4.77;;;2.90;;
18090;SDS011;9172;49.948;9.208;2023-04-29T10:53:30;4.63;;;2.60;;
18090;SDS011;9172;49.948;9.208;2023-04-29T10:56:03;4.03;;;2.80;;
18090;SDS011;9172;49.948;9.208;2023-04-29T10:58:36;3.87;;;2.50;;
18090;SDS011;9172;49.948;9.208;2023-04-29T11:01:07;4.67;;;3.27;;
18090;SDS011;9172;49.948;9.208;2023-04-29T11:03:45;4.07;;;2.80;;
18090;SDS011;9172;49.948;9.208;2023-04-29T11:06:22;4.70;;;2.57;;
18090;SDS011;9172;49.948;9.208;2023-04-29T11:09:02;4.10;;;2.40;;
18090;SDS011;9172;49.948;9.208;2023-04-29T11:11:40;5.43;;;3.20;;
18090;SDS011;9172;49.948;9.208;2023-04-29T11:14:28;4.37;;;2.67;;
18090;SDS011;9172;49.948;9.208;2023-04-29T11:16:59;3.07;;;2.30;;
18090;SDS011;9172;49.948;9.208;2023-04-29T11:19:32;4.37;;;2.30;;
18090;SDS011;9172;49.948;9.208;2023-04-29T11:22:12;2.93;;;1.90;;
18090;SDS011;9172;49.948;9.208;2023-04-29T11:24:51;2.83;;;1.70;;
18090;SDS011;9172;49.948;9.208;2023-04-29T11:27:22;2.50;;;1.70;;
18090;SDS011;9172;49.948;9.208;2023-04-29T11:29:53;2.97;;;1.90;;
18090;SDS011;9172;49.948;9.208;2023-04-29T11:32:24;3.43;;;2.00;;
18090;SDS011;9172;49.948;9.208;2023-04-29T11:34:54;1.83;;;1.50;;
18090;SDS011;9172;49.948;9.208;2023-04-29T11:37:25;2.90;;;1.50;;
18090;SDS011;9172;49.948;9.208;2023-04-29T11:39:58;3.33;;;1.77;;
18090;SDS011;9172;49.948;9.208;2023-04-29T11:42:27;3.63;;;2.20;;
18090;SDS011;9172;49.948;9.208;2023-04-29T11:44:56;3.10;;;2.00;;
18090;SDS011;9172;49.948;9.208;2023-04-29T11:47:26;3.30;;;1.97;;
18090;SDS011;9172;49.948;9.208;2023-04-29T11:50:01;2.87;;;2.00;;
18090;SDS011;9172;49.948;9.208;2023-04-29T11:52:31;3.57;;;2.30;;
18090;SDS011;9172;49.948;9.208;2023-04-29T11:55:01;3.97;;;2.33;;
18090;SDS011;9172;49.948;9.208;2023-04-29T11:57:30;4.27;;;2.93;;
18090;SDS011;9172;49.948;9.208;2023-04-29T12:00:03;3.00;;;2.00;;
18090;SDS011;9172;49.948;9.208;2023-04-29T12:02:42;3.17;;;2.20;;
18090;SDS011;9172;49.948;9.208;2023-04-29T12:05:12;3.63;;;2.10;;
18090;SDS011;9172;49.948;9.208;2023-04-29T12:07:44;2.30;;;1.77;;
18090;SDS011;9172;49.948;9.208;2023-04-29T12:10:12;3.10;;;2.10;;
18090;SDS011;9172;49.948;9.208;2023-04-29T12:12:50;5.23;;;2.40;;
18090;SDS011;9172;49.948;9.208;2023-04-29T12:15:22;4.37;;;2.07;;
18090;SDS011;9172;49.948;9.208;2023-04-29T12:17:53;2.47;;;1.70;;
18090;SDS011;9172;49.948;9.208;2023-04-29T12:20:24;3.80;;;2.00;;
18090;SDS011;9172;49.948;9.208;2023-04-29T12:22:54;3.97;;;2.27;;
18090;SDS011;9172;49.948;9.208;2023-04-29T12:25:25;4.33;;;2.57;;
18090;SDS011;9172;49.948;9.208;2023-04-29T12:27:58;3.23;;;2.03;;
18090;SDS011;9172;49.948;9.208;2023-04-29T12:30:31;4.60;;;2.90;;
18090;SDS011;9172;49.948;9.208;2023-04-29T12:33:01;3.30;;;2.50;;
18090;SDS011;9172;49.948;9.208;2023-04-29T12:35:31;10.47;;;4.07;;
18090;SDS011;9172;49.948;9.208;2023-04-29T12:38:02;3.57;;;2.40;;
18090;SDS011;9172;49.948;9.208;2023-04-29T12:40:32;5.20;;;2.53;;
18090;SDS011;9172;49.948;9.208;2023-04-29T12:43:06;2.97;;;2.20;;
18090;SDS011;9172;49.948;9.208;2023-04-29T12:45:35;3.30;;;2.30;;
18090;SDS011;9172;49.948;9.208;2023-04-29T12:48:05;3.87;;;2.30;;
18090;SDS011;9172;49.948;9.208;2023-04-29T12:50:34;2.47;;;1.83;;
18090;SDS011;9172;49.948;9.208;2023-04-29T12:53:11;3.80;;;2.03;;
18090;SDS011;9172;49.948;9.208;2023-04-29T12:55:41;2.17;;;1.67;;
18090;SDS011;9172;49.948;9.208;2023-04-29T12:58:10;2.47;;;1.33;;
18090;SDS011;9172;49.948;9.208;2023-04-29T13:00:40;6.33;;;1.93;;
18090;SDS011;9172;49.948;9.208;2023-04-29T13:03:08;3.70;;;1.80;;
18090;SDS011;9172;49.948;9.208;2023-04-29T13:05:38;2.60;;;1.67;;
18090;SDS011;9172;49.948;9.208;2023-04-29T13:08:07;4.17;;;1.90;;
18090;SDS011;9172;49.948;9.208;2023-04-29T13:10:37;2.83;;;2.00;;
18090;SDS011;9172;49.948;9.208;2023-04-29T13:13:05;4.03;;;2.00;;
18090;SDS011;9172;49.948;9.208;2023-04-29T13:15:35;3.30;;;2.00;;
18090;SDS011;9172;49.948;9.208;2023-04-29T13:18:05;3.73;;;2.17;;
18090;SDS011;9172;49.948;9.208;2023-04-29T13:20:34;2.90;;;1.90;;
18090;SDS011;9172;49.948;9.208;2023-04-29T13:23:03;6.70;;;2.13;;
18090;SDS011;9172;49.948;9.208;2023-04-29T13:25:31;3.07;;;2.07;;
18090;SDS011;9172;49.948;9.208;2023-04-29T13:28:00;3.60;;;2.33;;
18090;SDS011;9172;49.948;9.208;2023-04-29T13:30:30;3.80;;;2.47;;
18090;SDS011;9172;49.948;9.208;2023-04-29T13:32:59;3.23;;;1.83;;
18090;SDS011;9172;49.948;9.208;2023-04-29T13:35:28;2.23;;;1.80;;
18090;SDS011;9172;49.948;9.208;2023-04-29T13:37:57;6.97;;;2.10;;
18090;SDS011;9172;49.948;9.208;2023-04-29T13:40:27;3.57;;;2.33;;
18090;SDS011;9172;49.948;9.208;2023-04-29T13:42:55;2.60;;;1.70;;
18090;SDS011;9172;49.948;9.208;2023-04-29T13:45:24;4.77;;;1.87;;
18090;SDS011;9172;49.948;9.208;2023-04-29T13:47:52;2.73;;;1.73;;
18090;SDS011;9172;49.948;9.208;2023-04-29T13:50:21;4.00;;;1.83;;
18090;SDS011;9172;49.948;9.208;2023-04-29T13:52:51;1.87;;;1.43;;
18090;SDS011;9172;49.948;9.208;2023-04-29T13:55:20;2.67;;;1.93;;
18090;SDS011;9172;49.948;9.208;2023-04-29T13:57:50;2.50;;;1.40;;
18090;SDS011;9172;49.948;9.208;2023-04-29T14:00:19;3.60;;;1.70;;
18090;SDS011;9172;49.948;9.208;2023-04-29T14:02:47;1.70;;;1.40;;
18090;SDS011;9172;49.948;9.208;2023-04-29T14:05:16;4.20;;;1.60;;
18090;SDS011;9172;49.948;9.208;2023-04-29T14:07:45;2.90;;;1.63;;
18090;SDS011;9172;49.948;9.208;2023-04-29T14:10:14;7.13;;;1.73;;
18090;SDS011;9172;49.948;9.208;2023-04-29T14:12:43;9.67;;;2.10;;
18090;SDS011;9172;49.948;9.208;2023-04-29T14:15:11;2.50;;;1.60;;
18090;SDS011;9172;49.948;9.208;2023-04-29T14:17:40;2.60;;;1.93;;
18090;SDS011;9172;49.948;9.208;2023-04-29T14:20:12;3.83;;;1.80;;
18090;SDS011;9172;49.948;9.208;2023-04-29T14:22:41;4.00;;;1.80;;
18090;SDS011;9172;49.948;9.208;2023-04-29T14:25:11;2.07;;;1.60;;
18090;SDS011;9172;49.948;9.208;2023-04-29T14:27:40;2.97;;;1.93;;
18090;SDS011;9172;49.948;9.208;2023-04-29T14:30:09;2.17;;;1.53;;
18090;SDS011;9172;49.948;9.208;2023-04-29T14:32:38;1.67;;;1.40;;
18090;SDS011;9172;49.948;9.208;2023-04-29T14:35:08;2.77;;;1.60;;
18090;SDS011;9172;49.948;9.208;2023-04-29T14:37:38;2.50;;;1.47;;
18090;SDS011;9172;49.948;9.208;2023-04-29T14:40:10;2.67;;;1.80;;
18090;SDS011;9172;49.948;9.208;2023-04-29T14:42:39;3.17;;;1.70;;
18090;SDS011;9172;49.948;9.208;2023-04-29T14:45:08;2.57;;;1.57;;
18090;SDS011;9172;49.948;9.208;2023-04-29T14:47:37;2.63;;;1.67;;
18090;SDS011;9172;49.948;9.208;2023-04-29T14:50:08;3.00;;;1.50;;
18090;SDS011;9172;49.948;9.208;2023-04-29T14:52:37;2.20;;;1.33;;
18090;SDS011;9172;49.948;9.208;2023-04-29T14:55:05;2.20;;;1.20;;
18090;SDS011;9172;49.948;9.208;2023-04-29T14:57:34;1.90;;;1.47;;
18090;SDS011;9172;49.948;9.208;2023-04-29T15:00:05;1.47;;;1.23;;
18090;SDS011;9172;49.948;9.208;2023-04-29T15:02:37;2.00;;;1.43;;
18090;SDS011;9172;49.948;9.208;2023-04-29T15:05:06;2.30;;;1.40;;
18090;SDS011;9172;49.948;9.208;2023-04-29T15:07:35;2.07;;;1.43;;
18090;SDS011;9172;49.948;9.208;2023-04-29T15:10:04;4.23;;;1.30;;
18090;SDS011;9172;49.948;9.208;2023-04-29T15:12:42;1.67;;;1.30;;
18090;SDS011;9172;49.948;9.208;2023-04-29T15:15:11;1.60;;;1.10;;
18090;SDS011;9172;49.948;9.208;2023-04-29T15:17:41;5.40;;;1.70;;
18090;SDS011;9172;49.948;9.208;2023-04-29T15:20:10;2.53;;;1.50;;
18090;SDS011;9172;49.948;9.208;2023-04-29T15:22:39;1.50;;;1.20;;
18090;SDS011;9172;49.948;9.208;2023-04-29T15:25:08;2.97;;;1.50;;